createdAt,value
2019-03-01T00:02:09.576Z,1.67
2019-03-01T00:05:14.794Z,1.57
2019-03-01T00:08:11.649Z,1.73
2019-03-01T00:11:24.051Z,1.63
2019-03-01T00:14:40.293Z,1.50
2019-03-01T00:17:44.438Z,1.50
2019-03-01T00:20:52.459Z,1.20
2019-03-01T00:24:10.619Z,1.20
2019-03-01T00:27:24.286Z,1.13
2019-03-01T00:30:13.076Z,1.65
2019-03-01T00:32:56.281Z,1.37
2019-03-01T00:35:43.432Z,1.30
2019-03-01T00:38:53.480Z,1.53
2019-03-01T00:41:45.960Z,1.50
2019-03-01T00:44:43.733Z,1.90
2019-03-01T00:47:12.788Z,1.97
2019-03-01T00:49:41.639Z,1.33
2019-03-01T00:52:11.141Z,1.40
2019-03-01T00:54:40.061Z,1.62
2019-03-01T00:57:09.206Z,1.50
2019-03-01T00:59:39.317Z,1.55
2019-03-01T01:02:08.268Z,1.32
2019-03-01T01:04:37.290Z,1.30
2019-03-01T01:07:06.230Z,1.47
2019-03-01T01:09:35.023Z,1.20
2019-03-01T01:12:03.985Z,1.30
2019-03-01T01:14:32.752Z,1.80
2019-03-01T01:17:01.560Z,1.40
2019-03-01T01:19:30.379Z,1.30
2019-03-01T01:21:59.309Z,1.10
2019-03-01T01:24:28.069Z,1.13
2019-03-01T01:26:56.850Z,1.43
2019-03-01T01:29:25.617Z,1.17
2019-03-01T01:31:55.162Z,1.30
2019-03-01T01:34:23.924Z,1.50
2019-03-01T01:36:52.778Z,1.37
2019-03-01T01:39:23.123Z,0.97
2019-03-01T01:41:52.083Z,1.07
2019-03-01T01:44:20.892Z,1.00
2019-03-01T01:46:49.783Z,0.93
2019-03-01T01:49:18.912Z,1.07
2019-03-01T01:51:47.708Z,1.40
2019-03-01T01:54:16.596Z,1.23
2019-03-01T01:56:45.390Z,0.90
2019-03-01T01:59:14.162Z,1.20
2019-03-01T02:01:43.121Z,1.20
2019-03-01T02:04:11.891Z,1.05
2019-03-01T02:06:40.739Z,1.17
2019-03-01T02:09:25.193Z,1.17
2019-03-01T02:11:54.360Z,1.20
2019-03-01T02:14:23.358Z,1.20
2019-03-01T02:16:52.195Z,1.13
2019-03-01T02:19:21.154Z,1.83
2019-03-01T02:21:50.314Z,1.20
2019-03-01T02:24:19.186Z,1.00
2019-03-01T02:26:48.133Z,1.53
2019-03-01T02:29:16.910Z,1.22
2019-03-01T02:31:54.302Z,1.23
2019-03-01T02:34:23.097Z,1.17
2019-03-01T02:36:51.869Z,1.20
2019-03-01T02:39:20.675Z,1.37
2019-03-01T02:41:49.457Z,1.12
2019-03-01T02:44:18.205Z,1.70
2019-03-01T02:46:46.997Z,1.10
2019-03-01T02:49:15.861Z,1.42
2019-03-01T02:51:44.676Z,1.40
2019-03-01T02:54:13.499Z,1.20
2019-03-01T02:56:42.353Z,1.40
2019-03-01T02:59:11.260Z,1.13
2019-03-01T03:01:40.218Z,1.27
2019-03-01T03:04:09.004Z,1.37
2019-03-01T03:06:54.733Z,1.20
2019-03-01T03:09:23.525Z,1.43
2019-03-01T03:11:52.305Z,1.30
2019-03-01T03:14:21.089Z,1.30
2019-03-01T03:16:49.890Z,1.33
2019-03-01T03:19:18.657Z,1.57
2019-03-01T03:21:47.508Z,1.10
2019-03-01T03:24:16.299Z,1.53
2019-03-01T03:26:45.083Z,1.47
2019-03-01T03:29:13.862Z,1.60
2019-03-01T03:31:42.645Z,1.60
2019-03-01T03:34:11.487Z,1.50
2019-03-01T03:36:40.266Z,1.53
2019-03-01T03:39:11.421Z,1.70
2019-03-01T03:41:40.334Z,1.80
2019-03-01T03:44:09.143Z,1.70
2019-03-01T03:46:37.908Z,2.27
2019-03-01T03:49:06.850Z,2.40
2019-03-01T03:51:35.677Z,1.67
2019-03-01T03:54:04.627Z,2.30
2019-03-01T03:56:33.402Z,2.00
2019-03-01T03:59:02.357Z,1.47
2019-03-01T04:01:31.241Z,2.00
2019-03-01T04:04:00.817Z,1.47
2019-03-01T04:06:30.710Z,1.60
2019-03-01T04:08:59.538Z,1.80
2019-03-01T04:11:28.352Z,1.50
2019-03-01T04:13:57.137Z,1.90
2019-03-01T04:16:25.927Z,1.65
2019-03-01T04:18:54.726Z,1.70
2019-03-01T04:21:23.595Z,1.60
2019-03-01T04:23:52.460Z,1.37
2019-03-01T04:26:21.247Z,1.47
2019-03-01T04:28:50.031Z,2.60
2019-03-01T04:31:18.798Z,1.90
2019-03-01T04:33:47.586Z,1.40
2019-03-01T04:36:16.500Z,1.77
2019-03-01T04:38:45.278Z,1.70
2019-03-01T04:41:14.061Z,1.77
2019-03-01T04:43:42.828Z,1.52
2019-03-01T04:46:11.604Z,1.80
2019-03-01T04:48:40.372Z,1.30
2019-03-01T04:51:10.412Z,1.40
2019-03-01T04:53:39.182Z,1.30
2019-03-01T04:56:07.961Z,1.00
2019-03-01T04:58:36.829Z,1.40
2019-03-01T05:01:05.773Z,1.37
2019-03-01T05:03:34.756Z,1.20
2019-03-01T05:06:03.538Z,0.80
2019-03-01T05:08:33.183Z,0.90
2019-03-01T05:11:01.965Z,1.00
2019-03-01T05:13:30.744Z,0.80
2019-03-01T05:15:59.557Z,0.87
2019-03-01T05:18:28.339Z,1.00
2019-03-01T05:20:57.115Z,1.00
2019-03-01T05:23:25.881Z,0.83
2019-03-01T05:25:54.657Z,0.87
2019-03-01T05:28:23.437Z,0.70
2019-03-01T05:30:52.211Z,0.90
2019-03-01T05:33:20.991Z,0.65
2019-03-01T05:35:49.785Z,0.90
2019-03-01T05:38:21.756Z,0.77
2019-03-01T05:40:49.125Z,0.80
2019-03-01T05:43:18.016Z,0.80
2019-03-01T05:45:47.005Z,1.17
2019-03-01T05:48:15.763Z,0.90
2019-03-01T05:50:44.724Z,0.80
2019-03-01T05:53:13.494Z,1.67
2019-03-01T05:55:42.267Z,0.80
2019-03-01T05:58:33.055Z,0.90
2019-03-01T06:01:05.662Z,1.03
2019-03-01T06:03:47.560Z,0.85
2019-03-01T06:06:19.546Z,0.90
2019-03-01T06:09:07.614Z,0.90
2019-03-01T06:11:49.408Z,0.78
2019-03-01T06:15:02.076Z,0.90
2019-03-01T06:18:03.229Z,0.87
2019-03-01T06:21:15.631Z,1.07
2019-03-01T06:24:05.308Z,0.87
2019-03-01T06:27:12.128Z,0.90
2019-03-01T06:30:12.555Z,1.43
2019-03-01T06:33:24.411Z,0.93
2019-03-01T06:36:05.372Z,1.00
2019-03-01T06:39:50.510Z,1.10
2019-03-01T06:42:59.416Z,1.00
2019-03-01T06:45:54.068Z,1.23
2019-03-01T06:48:38.506Z,1.33
2019-03-01T06:51:15.821Z,1.90
2019-03-01T06:53:44.606Z,1.90
2019-03-01T06:56:13.521Z,1.70
2019-03-01T06:58:55.724Z,1.70
2019-03-01T07:01:29.957Z,1.83
2019-03-01T07:04:07.468Z,1.90
2019-03-01T07:06:36.236Z,1.70
2019-03-01T07:09:06.552Z,2.13
2019-03-01T07:11:35.408Z,2.10
2019-03-01T07:14:04.449Z,2.42
2019-03-01T07:16:33.363Z,2.37
2019-03-01T07:19:02.178Z,2.07
2019-03-01T07:21:31.023Z,1.87
2019-03-01T07:23:59.852Z,1.57
2019-03-01T07:26:28.729Z,1.67
2019-03-01T07:28:57.537Z,1.37
2019-03-01T07:31:26.300Z,1.70
2019-03-01T07:33:55.080Z,1.30
2019-03-01T07:36:23.945Z,1.20
2019-03-01T07:38:52.758Z,1.40
2019-03-01T07:41:21.639Z,1.67
2019-03-01T07:43:50.430Z,1.50
2019-03-01T07:46:19.208Z,1.10
2019-03-01T07:48:48.059Z,1.20
2019-03-01T07:51:16.822Z,1.60
2019-03-01T07:53:45.606Z,1.10
2019-03-01T07:56:14.452Z,1.43
2019-03-01T07:58:43.231Z,1.20
2019-03-01T08:01:11.996Z,1.32
2019-03-01T08:03:40.844Z,1.30
2019-03-01T08:06:13.131Z,1.42
2019-03-01T08:08:40.958Z,1.40
2019-03-01T08:11:10.591Z,1.10
2019-03-01T08:13:39.387Z,1.30
2019-03-01T08:16:08.166Z,1.50
2019-03-01T08:18:40.133Z,1.17
2019-03-01T08:21:10.052Z,1.23
2019-03-01T08:23:38.280Z,1.20
2019-03-01T08:26:07.070Z,0.80
2019-03-01T08:28:35.871Z,1.53
2019-03-01T08:31:04.781Z,1.30
2019-03-01T08:33:33.566Z,1.10
2019-03-01T08:36:05.664Z,0.97
2019-03-01T08:38:33.436Z,1.03
2019-03-01T08:41:02.276Z,0.90
2019-03-01T08:43:31.090Z,1.00
2019-03-01T08:45:59.849Z,0.90
2019-03-01T08:48:30.599Z,1.03
2019-03-01T08:50:59.191Z,0.90
2019-03-01T08:53:28.004Z,0.93
2019-03-01T08:55:56.771Z,0.90
2019-03-01T08:58:25.551Z,0.72
2019-03-01T09:00:59.597Z,1.00
2019-03-01T09:03:28.719Z,0.87
2019-03-01T09:05:57.683Z,0.80
2019-03-01T09:08:26.697Z,1.03
2019-03-01T09:10:55.558Z,1.00
2019-03-01T09:13:24.415Z,1.07
2019-03-01T09:15:53.192Z,0.95
2019-03-01T09:18:21.980Z,0.83
2019-03-01T09:20:50.817Z,0.90
2019-03-01T09:23:24.189Z,1.10
2019-03-01T09:25:50.110Z,0.80
2019-03-01T09:28:18.876Z,1.00
2019-03-01T09:30:47.668Z,0.90
2019-03-01T09:33:17.166Z,0.90
2019-03-01T09:35:54.082Z,0.80
2019-03-01T09:38:22.854Z,0.80
2019-03-01T09:40:51.792Z,0.87
2019-03-01T09:43:20.629Z,1.17
2019-03-01T09:45:49.613Z,1.17
2019-03-01T09:48:18.386Z,1.07
2019-03-01T09:50:47.311Z,0.90
2019-03-01T09:53:16.079Z,0.80
2019-03-01T09:55:45.303Z,0.98
2019-03-01T09:58:14.088Z,0.70
2019-03-01T10:00:55.618Z,1.00
2019-03-01T10:03:16.259Z,0.83
2019-03-01T10:05:45.884Z,0.80
2019-03-01T10:08:14.670Z,0.60
2019-03-01T10:10:43.443Z,0.73
2019-03-01T10:13:12.209Z,0.80
2019-03-01T10:15:41.166Z,1.00
2019-03-01T10:18:09.950Z,0.70
2019-03-01T10:20:38.745Z,1.00
2019-03-01T10:23:07.513Z,1.10
2019-03-01T10:25:36.290Z,1.00
2019-03-01T10:28:05.305Z,0.70
2019-03-01T10:30:34.245Z,1.30
2019-03-01T10:33:03.159Z,1.30
2019-03-01T10:35:32.023Z,1.33
2019-03-01T10:38:00.789Z,1.12
2019-03-01T10:40:29.577Z,1.10
2019-03-01T10:42:58.346Z,0.90
2019-03-01T10:45:28.155Z,1.00
2019-03-01T10:47:56.938Z,1.20
2019-03-01T10:50:25.807Z,1.13
2019-03-01T10:52:54.747Z,1.23
2019-03-01T10:55:23.597Z,1.37
2019-03-01T10:57:52.523Z,1.33
2019-03-01T11:00:22.983Z,1.20
2019-03-01T11:02:52.136Z,1.40
2019-03-01T11:05:21.235Z,1.60
2019-03-01T11:07:50.807Z,1.70
2019-03-01T11:10:22.105Z,1.87
2019-03-01T11:12:50.902Z,2.20
2019-03-01T11:15:20.170Z,2.00
2019-03-01T11:17:49.115Z,1.83
2019-03-01T11:20:18.538Z,2.00
2019-03-01T11:22:49.380Z,1.50
2019-03-01T11:25:18.397Z,1.97
2019-03-01T11:27:48.369Z,2.27
2019-03-01T11:30:19.396Z,1.90
2019-03-01T11:32:48.403Z,1.90
2019-03-01T11:35:17.787Z,2.33
2019-03-01T11:37:46.657Z,2.33
2019-03-01T11:40:18.019Z,2.10
2019-03-01T11:42:46.834Z,2.70
2019-03-01T11:45:15.961Z,2.63
2019-03-01T11:47:44.822Z,2.50
2019-03-01T11:50:16.145Z,2.60
2019-03-01T11:52:44.940Z,1.70
2019-03-01T11:55:14.296Z,2.20
2019-03-01T11:57:43.253Z,2.43
2019-03-01T12:00:15.621Z,2.67
2019-03-01T12:02:44.478Z,2.70
2019-03-01T12:05:13.883Z,2.57
2019-03-01T12:07:42.732Z,2.33
2019-03-01T12:10:13.743Z,3.00
2019-03-01T12:12:42.599Z,2.47
2019-03-01T12:15:11.664Z,3.55
2019-03-01T12:17:40.446Z,2.00
2019-03-01T12:20:11.329Z,2.33
2019-03-01T12:22:40.177Z,2.20
2019-03-01T12:25:10.505Z,2.80
2019-03-01T12:27:39.510Z,3.00
2019-03-01T12:30:11.738Z,2.20
2019-03-01T12:32:40.603Z,2.37
2019-03-01T12:35:09.679Z,2.03
2019-03-01T12:37:38.808Z,2.37
2019-03-01T12:40:10.113Z,2.63
2019-03-01T12:42:38.987Z,2.23
2019-03-01T12:45:09.253Z,2.07
2019-03-01T12:47:38.170Z,3.07
2019-03-01T12:50:08.191Z,2.80
2019-03-01T12:52:37.055Z,2.87
2019-03-01T12:55:06.810Z,3.50
2019-03-01T12:57:35.657Z,2.83
2019-03-01T13:00:06.029Z,2.95
2019-03-01T13:02:34.974Z,5.90
2019-03-01T13:05:03.913Z,3.30
2019-03-01T13:07:32.778Z,3.77
2019-03-01T13:10:03.233Z,3.10
2019-03-01T13:12:32.238Z,3.63
2019-03-01T13:15:01.033Z,5.70
2019-03-01T13:17:29.955Z,4.57
2019-03-01T13:20:01.214Z,3.67
2019-03-01T13:22:31.069Z,3.43
2019-03-01T13:25:00.031Z,3.23
2019-03-01T13:27:28.841Z,4.03
2019-03-01T13:29:58.621Z,3.40
2019-03-01T13:32:28.584Z,3.58
2019-03-01T13:34:57.497Z,3.53
2019-03-01T13:37:26.413Z,3.60
2019-03-01T13:39:55.297Z,2.13
2019-03-01T13:42:24.089Z,3.10
2019-03-01T13:44:52.885Z,4.62
2019-03-01T13:47:22.135Z,3.35
2019-03-01T13:49:50.912Z,2.77
2019-03-01T13:52:19.824Z,3.20
2019-03-01T13:54:48.640Z,4.20
2019-03-01T13:57:17.524Z,3.70
2019-03-01T13:59:46.438Z,3.20
2019-03-01T14:02:15.212Z,3.17
2019-03-01T14:04:44.151Z,4.10
2019-03-01T14:07:12.917Z,4.10
2019-03-01T14:09:41.763Z,3.50
2019-03-01T14:12:10.559Z,4.07
2019-03-01T14:14:39.434Z,5.20
2019-03-01T14:17:08.300Z,5.47
2019-03-01T14:19:39.093Z,4.17
2019-03-01T14:22:10.714Z,4.10
2019-03-01T14:24:38.306Z,4.90
2019-03-01T14:27:07.166Z,4.30
2019-03-01T14:29:35.985Z,4.40
2019-03-01T14:32:04.845Z,3.90
2019-03-01T14:34:33.949Z,4.77
2019-03-01T14:37:02.729Z,4.47
2019-03-01T14:39:31.534Z,3.95
2019-03-01T14:42:00.324Z,5.10
2019-03-01T14:44:30.749Z,5.80
2019-03-01T14:46:59.924Z,5.10
2019-03-01T14:49:28.744Z,6.03
2019-03-01T14:51:57.546Z,6.00
2019-03-01T14:54:26.455Z,7.10
2019-03-01T14:57:06.870Z,3.97
2019-03-01T14:59:49.474Z,3.50
2019-03-01T15:02:27.118Z,3.40
2019-03-01T15:04:55.913Z,3.40
2019-03-01T15:07:27.878Z,2.70
2019-03-01T15:09:57.233Z,2.87
2019-03-01T15:12:25.886Z,3.60
2019-03-01T15:14:55.346Z,4.40
2019-03-01T15:17:24.946Z,5.65
2019-03-01T15:19:53.730Z,5.65
2019-03-01T15:22:22.511Z,7.73
2019-03-01T15:24:51.290Z,5.73
2019-03-01T15:27:20.302Z,6.78
2019-03-01T15:29:49.188Z,7.80
2019-03-01T15:32:17.982Z,7.77
2019-03-01T15:34:46.847Z,9.13
2019-03-01T15:37:15.622Z,9.23
2019-03-01T15:39:44.445Z,10.03
2019-03-01T15:42:14.330Z,9.30
2019-03-01T15:44:43.859Z,7.90
2019-03-01T15:47:12.736Z,8.38
2019-03-01T15:49:41.544Z,9.33
2019-03-01T15:52:10.791Z,11.63
2019-03-01T15:54:41.131Z,10.70
2019-03-01T15:57:09.940Z,10.20
2019-03-01T15:59:38.825Z,11.67
2019-03-01T16:02:07.612Z,10.50
2019-03-01T16:04:36.404Z,10.60
2019-03-01T16:07:05.276Z,10.70
2019-03-01T16:09:34.067Z,10.90
2019-03-01T16:12:02.920Z,11.37
2019-03-01T16:14:31.734Z,11.47
2019-03-01T16:17:00.819Z,10.80
2019-03-01T16:19:29.622Z,12.00
2019-03-01T16:21:58.412Z,12.17
2019-03-01T16:24:27.668Z,11.30
2019-03-01T16:26:57.063Z,11.48
2019-03-01T16:29:25.857Z,10.90
2019-03-01T16:31:54.682Z,10.30
2019-03-01T16:34:23.466Z,10.90
2019-03-01T16:36:54.715Z,9.43
2019-03-01T16:39:23.813Z,11.07
2019-03-01T16:41:53.500Z,9.50
2019-03-01T16:44:22.376Z,9.80
2019-03-01T16:46:51.176Z,10.40
2019-03-01T16:49:23.639Z,9.53
2019-03-01T16:51:53.843Z,13.35
2019-03-01T16:54:21.178Z,11.47
2019-03-01T16:56:49.996Z,11.53
2019-03-01T16:59:18.777Z,12.93
2019-03-01T17:01:47.586Z,13.30
2019-03-01T17:04:16.391Z,15.53
2019-03-01T17:06:45.527Z,16.40
2019-03-01T17:09:16.616Z,13.17
2019-03-01T17:11:45.873Z,12.17
2019-03-01T17:14:15.942Z,12.00
2019-03-01T17:16:44.935Z,14.40
2019-03-01T17:19:13.739Z,13.65
2019-03-01T17:21:42.645Z,13.30
2019-03-01T17:24:12.265Z,12.97
2019-03-01T17:26:41.975Z,12.18
2019-03-01T17:29:10.760Z,13.50
2019-03-01T17:31:39.557Z,11.33
2019-03-01T17:34:08.389Z,14.27
2019-03-01T17:36:37.266Z,10.20
2019-03-01T17:39:07.493Z,11.23
2019-03-01T17:41:36.291Z,10.98
2019-03-01T17:44:08.557Z,12.47
2019-03-01T17:46:35.734Z,12.93
2019-03-01T17:49:04.726Z,15.50
2019-03-01T17:51:33.560Z,14.53
2019-03-01T17:54:02.514Z,13.63
2019-03-01T17:56:31.323Z,16.67
2019-03-01T17:59:00.445Z,11.83
2019-03-01T18:01:29.226Z,13.57
2019-03-01T18:04:01.631Z,15.73
2019-03-01T18:06:28.534Z,11.30
2019-03-01T18:08:57.347Z,13.30
2019-03-01T18:11:26.194Z,18.20
2019-03-01T18:13:56.906Z,14.67
2019-03-01T18:16:25.714Z,17.83
2019-03-01T18:18:54.534Z,17.20
2019-03-01T18:21:23.318Z,15.13
2019-03-01T18:23:52.104Z,17.95
2019-03-01T18:26:22.917Z,17.00
2019-03-01T18:28:51.672Z,19.30
2019-03-01T18:31:20.454Z,16.77
2019-03-01T18:33:49.353Z,16.80
2019-03-01T18:36:18.146Z,19.10
2019-03-01T18:38:47.151Z,21.23
2019-03-01T18:41:16.047Z,17.27
2019-03-01T18:43:45.898Z,23.35
2019-03-01T18:46:19.261Z,18.00
2019-03-01T18:48:46.071Z,18.75
2019-03-01T18:51:14.801Z,18.77
2019-03-01T18:53:45.528Z,22.07
2019-03-01T18:56:14.090Z,18.10
2019-03-01T18:58:45.656Z,22.53
2019-03-01T19:01:14.180Z,17.97
2019-03-01T19:03:43.064Z,17.37
2019-03-01T19:06:12.787Z,22.37
2019-03-01T19:08:42.559Z,20.43
2019-03-01T19:11:11.432Z,22.17
2019-03-01T19:13:40.401Z,23.10
2019-03-01T19:16:09.880Z,23.20
2019-03-01T19:18:38.787Z,20.97
2019-03-01T19:21:07.597Z,20.67
2019-03-01T19:23:36.527Z,19.93
2019-03-01T19:26:05.467Z,23.20
2019-03-01T19:28:34.261Z,29.13
2019-03-01T19:31:04.174Z,25.45
2019-03-01T19:33:34.709Z,23.62
2019-03-01T19:36:04.387Z,22.17
2019-03-01T19:38:33.223Z,26.30
2019-03-01T19:41:02.101Z,26.93
2019-03-01T19:43:30.905Z,24.30
2019-03-01T19:45:59.727Z,26.70
2019-03-01T19:48:28.561Z,20.70
2019-03-01T19:50:58.517Z,23.00
2019-03-01T19:53:27.960Z,25.33
2019-03-01T19:55:56.755Z,27.95
2019-03-01T19:58:25.556Z,23.47
2019-03-01T20:00:54.678Z,28.53
2019-03-01T20:03:23.756Z,27.60
2019-03-01T20:05:52.556Z,28.70
2019-03-01T20:08:21.355Z,25.30
2019-03-01T20:10:50.928Z,22.97
2019-03-01T20:13:20.939Z,23.60
2019-03-01T20:15:49.851Z,21.40
2019-03-01T20:18:18.742Z,22.90
2019-03-01T20:20:47.518Z,17.47
2019-03-01T20:23:16.396Z,22.73
2019-03-01T20:25:47.572Z,19.77
2019-03-01T20:28:16.355Z,21.50
2019-03-01T20:30:45.404Z,19.85
2019-03-01T20:33:14.239Z,21.07
2019-03-01T20:35:43.034Z,21.10
2019-03-01T20:38:11.826Z,21.57
2019-03-01T20:40:40.626Z,20.60
2019-03-01T20:43:09.598Z,20.50
2019-03-01T20:45:38.718Z,17.07
2019-03-01T20:48:07.766Z,24.93
2019-03-01T20:50:37.482Z,19.57
2019-03-01T20:53:06.270Z,23.60
2019-03-01T20:55:37.118Z,23.03
2019-03-01T20:58:05.783Z,20.17
2019-03-01T21:00:34.653Z,19.50
2019-03-01T21:03:03.512Z,20.03
2019-03-01T21:05:32.298Z,22.10
2019-03-01T21:08:01.108Z,22.40
2019-03-01T21:10:30.075Z,17.40
2019-03-01T21:12:58.873Z,19.87
2019-03-01T21:15:28.036Z,26.50
2019-03-01T21:17:58.524Z,31.20
2019-03-01T21:20:27.511Z,18.50
2019-03-01T21:22:56.319Z,29.27
2019-03-01T21:25:25.306Z,21.87
2019-03-01T21:27:54.119Z,21.87
2019-03-01T21:30:24.914Z,22.30
2019-03-01T21:32:53.881Z,20.90
2019-03-01T21:35:22.808Z,20.00
2019-03-01T21:37:51.978Z,19.03
2019-03-01T21:40:20.840Z,15.13
2019-03-01T21:42:52.855Z,19.43
2019-03-01T21:45:21.540Z,19.00
2019-03-01T21:47:50.835Z,22.55
2019-03-01T21:50:19.878Z,17.53
2019-03-01T21:52:48.752Z,19.80
2019-03-01T21:55:18.384Z,19.70
2019-03-01T21:57:47.245Z,19.73
2019-03-01T22:02:37.959Z,18.95
2019-03-01T22:05:10.359Z,20.60
2019-03-01T22:07:39.028Z,19.93
2019-03-01T22:10:09.613Z,14.33
2019-03-01T22:12:38.798Z,18.33
2019-03-01T22:15:11.033Z,23.87
2019-03-01T22:17:39.843Z,18.83
2019-03-01T22:20:09.907Z,23.50
2019-03-01T22:22:38.888Z,22.20
2019-03-01T22:25:08.406Z,19.23
2019-03-01T22:27:37.170Z,21.87
2019-03-01T22:30:08.145Z,20.60
2019-03-01T22:32:37.015Z,21.00
2019-03-01T22:35:08.573Z,21.50
2019-03-01T22:37:36.382Z,21.60
2019-03-01T22:40:06.126Z,21.67
2019-03-01T22:42:34.997Z,24.57
2019-03-01T22:45:04.150Z,21.00
2019-03-01T22:47:36.071Z,22.57
2019-03-01T22:50:04.039Z,19.55
2019-03-01T22:52:34.220Z,24.27
2019-03-01T22:55:03.077Z,23.53
2019-03-01T22:57:31.904Z,22.50
2019-03-01T23:00:00.744Z,21.43
2019-03-01T23:02:29.835Z,22.30
2019-03-01T23:05:00.415Z,21.10
2019-03-01T23:07:29.317Z,22.43
2019-03-01T23:09:58.567Z,23.20
2019-03-01T23:12:27.626Z,20.50
2019-03-01T23:14:56.422Z,22.20
2019-03-01T23:17:27.617Z,21.07
2019-03-01T23:19:55.797Z,19.40
2019-03-01T23:22:24.886Z,19.70
2019-03-01T23:24:53.946Z,20.47
2019-03-01T23:27:22.905Z,23.40
2019-03-01T23:29:54.261Z,20.47
2019-03-01T23:32:22.285Z,21.97
2019-03-01T23:34:51.239Z,22.93
2019-03-01T23:37:20.135Z,19.63
2019-03-01T23:39:49.010Z,17.90
2019-03-01T23:42:20.785Z,21.67
2019-03-01T23:44:48.390Z,20.50
2019-03-01T23:47:17.196Z,16.50
2019-03-01T23:49:46.007Z,19.73
2019-03-01T23:52:15.450Z,20.40
2019-03-01T23:54:45.304Z,21.43
2019-03-01T23:57:15.675Z,18.00
2019-03-01T23:59:44.464Z,18.67
